LFSTLFBZ

Guest
Details From LFST - Entzheim
To LFBZ - Biarritz Bayonne Anglet
Flight Number -
Tags Generated
Created
Modified
Stats Distance 488 nm / 903 km
Max Altitude 0 ft / 0 m
Waypoints 4
Social Downloads 2
Likes 0
Share VATSIM

Download

Looking for another format? Having issues loading an existing format? Contact us
Advertisement - Login to hide

Notes

Generated

Route

LFST CFA28 RW09 LFBZ

ID Type Via Altitude Latitude Longitude Leg Dist Tot Dist Heading (true) Name
O LFST APT - 0 ft / 0 m 48.53118˚ 7.61607˚ - 0 nm - -
CFA28 FIX - 0 ft / 0 m 46.24833˚ 3.09833˚ 229 nm 229 nm 235° / 232° -
RW09 FIX - 0 ft / 0 m 43.46827˚ -1.53470˚ 258 nm 487 nm 231° / 228° -
O LFBZ APT - 0 ft / 0 m 43.46824˚ -1.53723˚ 0 nm 487 nm 269° / 269° -

Altitude Profile

Advertisement - Login to hide

Weather


0- 5 10 15 20 25 30 35+ Temperature / ° C

Clouds and Precipitation
Forecast for 2018-05-23 12:00 UTC. Updated 25 minutes ago

Ground ~20,000 ft ~40,000 ft Winds

LFST

Details ICAO LFST (SXB)
Name Entzheim
Region France
Timezone Europe/Paris (UTC+2.0)
Stats Elevation 504 ft / 154 m (AMSL)
Location 48.538335° 7.628265°
Runways 1
Magnetic Variation 2.159° E

METAR

LFST 230930Z AUTO 36004KT 320V050 CAVOK 20/15 Q1018 TEMPO FEW050CB

Decode

TAF

TAF LFST 230500Z 2306/2406 02005KT CAVOK TEMPO 2310/2319 FEW050CB PROB30 TEMPO 2312/2318 TS SCT050CB

Decode

Departure Runways

ID Width Length Bearing (true) Bearing (mag) Surface Threshold Offset Overrun Length
05 148 ft / 45 m 7,899 ft / 2,408 m 48.60° 46.44° Asphalt 0 ft / 0 m 860 ft / 262 m
23 148 ft / 45 m 7,899 ft / 2,408 m 228.62° 226.46° Asphalt 0 ft / 0 m 902 ft / 275 m

LFBZ

Details ICAO LFBZ (BIQ)
Name Biarritz-Anglet-Bayonne
Region France
Timezone Europe/Paris (UTC+2.0)
Stats Elevation 245 ft / 75 m (AMSL)
Location 43.468427° -1.523322°
Runways 1
Magnetic Variation 0.171° W

METAR

LFBZ 230930Z AUTO 06003KT 010V110 CAVOK 21/15 Q1018 TEMPO SCT040TCU

Decode

TAF

TAF LFBZ 230500Z 2306/2406 VRB02KT 6000 NSC PROB30 TEMPO 2306/2308 3000 BR BKN005 BECMG 2306/2308 13005KT CAVOK BECMG 2310/2312 35008KT TEMPO 2310/2317 SCT040TCU BECMG 2320/2322 09005KT

Decode

Destination Runways

ID Width Length Bearing (true) Bearing (mag) Surface Threshold Offset Overrun Length
09 148 ft / 45 m 7,388 ft / 2,252 m 89.12° 89.29° Asphalt 673 ft / 205 m 0 ft / 0 m
27 148 ft / 45 m 7,388 ft / 2,252 m 269.14° 269.31° Asphalt 0 ft / 0 m 0 ft / 0 m

Approach Navaids

Runway Type Ident Frequency Range Bearing (true) Bearing (mag) Slope Elevation
09 Localiser BZ 111.34 MHz 18 nm / 33 km 89.35° 89.53° - 243 ft / 74 m (AMSL)
09 Glidescope BZ 111.34 MHz 10 nm / 19 km 89.13° 89.30° 3.00° 243 ft / 74 m (AMSL)
27 Localiser BZ 111.35 MHz 18 nm / 33 km 269.04° 269.21° - 234 ft / 71 m (AMSL)
27 Glidescope BZ 111.35 MHz 10 nm / 19 km 269.13° 269.30° 3.00° 234 ft / 71 m (AMSL)
27 DME BZ 111.35 MHz 18 nm / 33 km - - - 223 ft / 68 m (AMSL)

Popular Alternatives